createdAt,value
2018-11-26T00:00:31.159Z,38.17
2018-11-26T00:04:40.291Z,33.47
2018-11-26T00:08:47.609Z,36.13
2018-11-26T00:12:54.459Z,30.23
2018-11-26T00:17:18.692Z,35.67
2018-11-26T00:21:26.733Z,34.27
2018-11-26T00:25:34.057Z,36.60
2018-11-26T00:29:40.741Z,32.53
2018-11-26T00:33:47.241Z,30.27
2018-11-26T00:37:55.380Z,33.27
2018-11-26T00:42:01.858Z,32.20
2018-11-26T00:46:08.664Z,29.67
2018-11-26T00:50:15.299Z,31.67
2018-11-26T00:54:22.066Z,33.87
2018-11-26T00:58:28.610Z,32.33
2018-11-26T01:02:37.187Z,29.10
2018-11-26T01:07:01.783Z,32.73
2018-11-26T01:11:10.943Z,32.27
2018-11-26T01:15:17.477Z,33.43
2018-11-26T01:19:27.430Z,32.13
2018-11-26T01:23:33.944Z,32.43
2018-11-26T01:27:41.159Z,30.47
2018-11-26T01:31:47.677Z,30.00
2018-11-26T01:35:54.582Z,28.73
2018-11-26T01:40:01.091Z,33.97
2018-11-26T01:44:08.949Z,21.50
2018-11-26T01:48:15.426Z,32.17
2018-11-26T01:52:21.991Z,32.77
2018-11-26T01:56:28.473Z,17.73
2018-11-26T02:00:42.077Z,32.10
2018-11-26T02:04:48.521Z,29.53
2018-11-26T02:09:13.257Z,25.80
2018-11-26T02:13:37.162Z,24.03
2018-11-26T02:17:47.330Z,22.10
2018-11-26T02:21:53.814Z,20.47
2018-11-26T02:26:01.713Z,25.60
2018-11-26T02:30:09.411Z,25.57
2018-11-26T02:34:36.211Z,24.13
2018-11-26T02:38:45.177Z,16.17
2018-11-26T02:42:52.169Z,22.57
2018-11-26T02:46:58.653Z,16.97
2018-11-26T02:51:06.316Z,18.53
2018-11-26T02:55:12.773Z,20.07
2018-11-26T02:59:19.511Z,21.20
2018-11-26T03:03:25.970Z,21.13
2018-11-26T03:07:33.937Z,17.73
2018-11-26T03:11:40.423Z,18.50
2018-11-26T03:15:48.193Z,22.63
2018-11-26T03:19:56.954Z,22.63
2018-11-26T03:24:05.273Z,14.97
2018-11-26T03:28:11.724Z,23.73
2018-11-26T03:32:18.453Z,24.20
2018-11-26T03:36:42.431Z,12.77
2018-11-26T03:40:59.495Z,20.23
2018-11-26T03:45:07.616Z,15.33
2018-11-26T03:49:14.280Z,25.20
2018-11-26T03:53:20.724Z,22.80
2018-11-26T03:57:29.085Z,22.23
2018-11-26T04:01:36.455Z,18.33
2018-11-26T04:05:43.360Z,23.10
2018-11-26T04:09:51.742Z,20.23
2018-11-26T04:13:59.442Z,14.10
2018-11-26T04:18:23.548Z,27.23
2018-11-26T04:22:31.073Z,28.33
2018-11-26T04:26:37.554Z,25.73
2018-11-26T04:30:51.334Z,22.60
2018-11-26T04:35:15.763Z,18.90
2018-11-26T04:39:22.438Z,27.47
2018-11-26T04:43:28.943Z,27.57
2018-11-26T04:47:36.184Z,23.00
2018-11-26T04:52:00.303Z,28.47
2018-11-26T04:56:10.250Z,26.53
2018-11-26T05:00:16.960Z,26.57
2018-11-26T05:04:24.411Z,25.00
2018-11-26T05:08:31.695Z,23.33
2018-11-26T05:12:43.524Z,19.83
2018-11-26T05:16:49.993Z,21.87
2018-11-26T05:20:56.852Z,16.60
2018-11-26T05:25:07.346Z,15.60
2018-11-26T05:29:14.735Z,16.83
2018-11-26T05:33:23.443Z,21.47
2018-11-26T05:37:31.707Z,21.70
2018-11-26T05:41:38.226Z,16.57
2018-11-26T05:45:44.898Z,18.60
2018-11-26T05:49:51.411Z,17.63
2018-11-26T05:54:17.609Z,22.53
2018-11-26T05:58:24.037Z,21.07
2018-11-26T06:02:30.762Z,14.80
2018-11-26T06:06:37.783Z,16.73
2018-11-26T06:10:45.025Z,19.73
2018-11-26T06:14:51.572Z,15.97
2018-11-26T06:19:01.032Z,17.50
2018-11-26T06:23:07.784Z,16.30
2018-11-26T06:27:32.851Z,12.03
2018-11-26T06:31:57.851Z,14.80
2018-11-26T06:36:04.579Z,17.63
2018-11-26T06:40:12.096Z,16.30
2018-11-26T06:44:20.620Z,14.53
2018-11-26T06:48:27.281Z,20.57
2018-11-26T06:52:34.950Z,18.80
2018-11-26T06:56:58.869Z,23.47
2018-11-26T07:01:05.562Z,15.10
2018-11-26T07:05:23.463Z,23.50
2018-11-26T07:09:30.654Z,10.67
2018-11-26T07:13:37.149Z,20.07
2018-11-26T07:17:44.484Z,10.10
2018-11-26T07:21:54.048Z,23.13
2018-11-26T07:26:21.569Z,18.73
2018-11-26T07:30:29.709Z,15.30
2018-11-26T07:34:36.776Z,15.10
2018-11-26T07:38:43.368Z,17.40
2018-11-26T07:43:14.976Z,19.73
2018-11-26T07:47:21.529Z,16.10
2018-11-26T07:51:30.869Z,17.30
2018-11-26T07:55:37.471Z,23.10
2018-11-26T07:59:44.118Z,19.30
2018-11-26T08:03:53.600Z,19.33
2018-11-26T08:08:01.346Z,12.73
2018-11-26T08:12:10.770Z,12.93
2018-11-26T08:16:17.393Z,9.10
2018-11-26T08:20:24.970Z,17.33
2018-11-26T08:24:32.880Z,11.27
2018-11-26T08:28:39.356Z,12.97
2018-11-26T08:32:47.056Z,16.53
2018-11-26T08:37:27.189Z,17.63
2018-11-26T08:41:54.262Z,10.47
2018-11-26T08:46:48.391Z,18.43
2018-11-26T08:50:55.585Z,11.67
2018-11-26T08:55:02.241Z,10.00
2018-11-26T08:59:32.064Z,17.03
2018-11-26T09:03:56.915Z,11.37
2018-11-26T09:08:03.526Z,13.43
2018-11-26T09:12:13.017Z,12.70
2018-11-26T09:16:20.295Z,17.77
2018-11-26T09:20:26.752Z,19.97
2018-11-26T09:24:33.366Z,18.90
2018-11-26T09:28:58.134Z,16.20
2018-11-26T09:33:07.386Z,16.53
2018-11-26T09:37:13.904Z,9.30
2018-11-26T09:41:20.633Z,13.80
2018-11-26T09:45:27.170Z,13.80
2018-11-26T09:49:52.785Z,11.47
2018-11-26T09:53:59.240Z,13.10
2018-11-26T09:58:06.406Z,9.77
2018-11-26T10:02:13.654Z,9.37
2018-11-26T10:06:21.266Z,8.63
2018-11-26T10:10:27.766Z,13.17
2018-11-26T10:14:35.580Z,14.17
2018-11-26T10:18:42.165Z,9.60
2018-11-26T10:22:50.111Z,10.93
2018-11-26T10:26:56.644Z,12.23
2018-11-26T10:31:03.353Z,11.20
2018-11-26T10:35:19.109Z,12.37
2018-11-26T10:39:27.993Z,12.77
2018-11-26T10:43:34.523Z,9.10
2018-11-26T10:47:41.205Z,7.93
2018-11-26T10:51:48.649Z,8.63
2018-11-26T10:55:55.663Z,10.70
2018-11-26T11:00:02.187Z,12.10
2018-11-26T11:04:30.590Z,14.67
2018-11-26T11:08:37.168Z,11.90
2018-11-26T11:12:45.297Z,12.40
2018-11-26T11:16:51.787Z,14.87
2018-11-26T11:20:58.509Z,13.63
2018-11-26T11:25:05.197Z,12.37
2018-11-26T11:29:12.919Z,14.20
2018-11-26T11:37:26.962Z,13.13
2018-11-26T11:41:34.833Z,12.30
2018-11-26T11:45:42.572Z,14.10
2018-11-26T11:50:12.172Z,13.97
2018-11-26T11:54:21.067Z,12.70
2018-11-26T11:58:27.523Z,11.30
2018-11-26T12:02:40.878Z,13.33
2018-11-26T12:07:04.926Z,12.80
2018-11-26T12:11:13.112Z,12.93
2018-11-26T12:15:19.607Z,12.33
2018-11-26T12:19:45.499Z,12.23
2018-11-26T12:23:51.951Z,11.90
2018-11-26T12:27:58.748Z,12.50
2018-11-26T12:32:05.203Z,7.53
2018-11-26T12:36:12.084Z,9.27
2018-11-26T12:40:19.783Z,12.67
2018-11-26T12:44:34.495Z,12.43
2018-11-26T12:48:42.806Z,12.73
2018-11-26T12:52:50.436Z,11.77
2018-11-26T12:57:14.601Z,9.87
2018-11-26T13:01:21.520Z,11.13
2018-11-26T13:05:28.170Z,7.80
2018-11-26T13:09:38.473Z,11.60
2018-11-26T13:13:44.953Z,11.03
2018-11-26T13:17:52.638Z,8.63
2018-11-26T13:21:59.471Z,10.93
2018-11-26T13:26:24.725Z,10.77
2018-11-26T13:30:50.961Z,9.13
2018-11-26T13:34:57.819Z,9.03
2018-11-26T13:39:22.029Z,10.17
2018-11-26T13:43:31.548Z,8.57
2018-11-26T13:47:56.963Z,9.53
2018-11-26T13:52:04.991Z,9.43
2018-11-26T13:56:11.507Z,9.53
2018-11-26T14:00:53.296Z,8.17
2018-11-26T14:05:17.857Z,8.37
2018-11-26T14:09:25.534Z,8.80
2018-11-26T14:13:37.654Z,10.03
2018-11-26T14:17:49.861Z,7.70
2018-11-26T14:21:57.320Z,7.87
2018-11-26T14:26:04.694Z,9.00
2018-11-26T14:30:21.619Z,9.80
2018-11-26T14:34:29.134Z,9.40
2018-11-26T14:38:35.637Z,9.23
2018-11-26T14:42:47.616Z,7.07
2018-11-26T14:47:11.624Z,8.80
2018-11-26T14:51:22.517Z,8.17
2018-11-26T14:55:30.197Z,9.07
2018-11-26T14:59:37.895Z,8.27
2018-11-26T15:03:44.443Z,6.00
2018-11-26T15:07:52.016Z,7.33
2018-11-26T15:12:01.115Z,7.70
2018-11-26T15:16:08.237Z,9.23
2018-11-26T15:20:31.134Z,6.97
2018-11-26T15:24:57.350Z,8.27
2018-11-26T15:29:03.983Z,9.60
2018-11-26T15:33:10.800Z,9.53
2018-11-26T15:37:17.333Z,5.27
2018-11-26T15:41:41.942Z,8.03
2018-11-26T15:45:48.525Z,8.70
2018-11-26T15:49:55.315Z,9.00
2018-11-26T15:54:18.870Z,9.37
2018-11-26T15:58:26.882Z,9.53
2018-11-26T16:02:33.319Z,9.00
2018-11-26T16:06:41.090Z,10.43
2018-11-26T16:10:47.727Z,11.33
2018-11-26T16:14:55.692Z,10.57
2018-11-26T16:19:04.159Z,7.93
2018-11-26T16:23:16.848Z,10.30
2018-11-26T16:27:23.321Z,8.77
2018-11-26T16:31:34.093Z,12.53
2018-11-26T16:35:44.527Z,11.50
2018-11-26T16:39:51.383Z,7.90
2018-11-26T16:43:58.824Z,10.30
2018-11-26T16:48:05.585Z,11.40
2018-11-26T16:52:12.194Z,9.87
2018-11-26T16:56:18.906Z,10.57
2018-11-26T17:00:32.110Z,8.63
2018-11-26T17:04:45.716Z,11.50
2018-11-26T17:08:52.225Z,8.50
2018-11-26T17:13:17.057Z,14.40
2018-11-26T17:17:24.542Z,11.13
2018-11-26T17:21:33.318Z,11.77
2018-11-26T17:25:42.665Z,10.10
2018-11-26T17:29:47.475Z,10.97
2018-11-26T17:33:54.045Z,11.30
2018-11-26T17:38:02.008Z,10.73
2018-11-26T17:42:25.867Z,6.13
2018-11-26T17:46:32.729Z,8.23
2018-11-26T17:50:45.387Z,6.57
2018-11-26T17:54:53.204Z,5.70
2018-11-26T17:58:59.658Z,5.37
2018-11-26T18:03:06.869Z,6.50
2018-11-26T18:07:14.696Z,5.40
2018-11-26T18:11:21.911Z,8.17
2018-11-26T18:15:28.448Z,7.97
2018-11-26T18:19:52.201Z,8.10
2018-11-26T18:23:58.730Z,9.03
2018-11-26T18:28:09.038Z,8.30
2018-11-26T18:32:15.642Z,6.57
2018-11-26T18:36:22.316Z,5.17
2018-11-26T18:40:30.043Z,6.17
2018-11-26T18:44:38.671Z,10.60
2018-11-26T18:48:47.712Z,8.67
2018-11-26T18:52:53.259Z,5.07
2018-11-26T18:56:59.739Z,8.17
2018-11-26T19:01:08.072Z,10.37
2018-11-26T19:05:16.378Z,7.63
2018-11-26T19:09:23.400Z,9.83
2018-11-26T19:13:32.208Z,10.07
2018-11-26T19:17:39.314Z,10.37
2018-11-26T19:21:45.813Z,10.23
2018-11-26T19:25:54.368Z,10.03
2018-11-26T19:30:00.901Z,8.27
2018-11-26T19:34:14.588Z,11.47
2018-11-26T19:38:21.138Z,10.00
2018-11-26T19:42:28.215Z,14.23
2018-11-26T19:46:34.940Z,9.27
2018-11-26T19:50:44.478Z,12.40
2018-11-26T19:54:51.725Z,9.87
2018-11-26T19:58:58.768Z,5.37
2018-11-26T20:03:25.632Z,10.63
2018-11-26T20:07:32.627Z,7.50
2018-11-26T20:11:39.213Z,9.53
2018-11-26T20:15:45.950Z,8.63
2018-11-26T20:20:09.692Z,9.53
2018-11-26T20:24:35.158Z,9.43
2018-11-26T20:28:59.250Z,10.57
2018-11-26T20:33:23.706Z,9.80
2018-11-26T20:37:31.268Z,5.27
2018-11-26T20:41:37.975Z,8.37
2018-11-26T20:46:05.844Z,8.53
2018-11-26T20:50:17.155Z,7.63
2018-11-26T20:54:23.684Z,10.27
2018-11-26T20:58:32.188Z,8.47
2018-11-26T21:02:38.725Z,11.30
2018-11-26T21:06:45.499Z,10.47
2018-11-26T21:11:09.380Z,10.63
2018-11-26T21:15:22.594Z,7.60
2018-11-26T21:19:29.056Z,11.93
2018-11-26T21:23:53.225Z,10.63
2018-11-26T21:28:00.587Z,10.53
2018-11-26T21:32:15.075Z,8.80
2018-11-26T21:36:21.640Z,12.17
2018-11-26T21:40:28.412Z,13.17
2018-11-26T21:44:37.293Z,12.63
2018-11-26T21:49:02.181Z,12.00
2018-11-26T21:53:13.594Z,8.93
2018-11-26T21:57:40.939Z,12.00
2018-11-26T22:01:49.944Z,9.63
2018-11-26T22:05:59.916Z,5.50
2018-11-26T22:10:07.125Z,9.57
2018-11-26T22:14:31.422Z,9.57
2018-11-26T22:18:37.876Z,5.70
2018-11-26T22:22:46.795Z,7.00
2018-11-26T22:26:53.598Z,9.97
2018-11-26T22:31:02.810Z,8.30
2018-11-26T22:35:08.384Z,9.33
2018-11-26T22:39:15.736Z,10.97
2018-11-26T22:43:23.016Z,13.13
2018-11-26T22:47:52.187Z,14.60
2018-11-26T22:52:02.430Z,14.90
2018-11-26T22:56:10.057Z,14.63
2018-11-26T23:00:30.544Z,16.80
2018-11-26T23:04:38.004Z,16.37
2018-11-26T23:08:47.243Z,19.43
2018-11-26T23:12:53.944Z,14.87
2018-11-26T23:17:00.389Z,17.60
2018-11-26T23:21:10.323Z,18.37
2018-11-26T23:25:20.939Z,18.67
2018-11-26T23:29:28.306Z,15.07
2018-11-26T23:33:52.042Z,19.33
2018-11-26T23:37:59.637Z,19.53
2018-11-26T23:42:08.921Z,19.83
2018-11-26T23:46:16.641Z,18.00
2018-11-26T23:50:23.139Z,17.23
2018-11-26T23:54:29.922Z,21.03
2018-11-26T23:58:36.392Z,17.37
